Time,TemperatureF,DewpointF,PressureIn,WindDirection,WindDirectionDegrees,WindSpeedMPH,WindSpeedGustMPH,Humidity,HourlyPrecipIn,Conditions,Clouds,dailyrainin,SolarRadiationWatts/m^2,SoftwareType,DateUTC
2013-01-15 00:02:00,22.0,10.0,-100.00,SSE,151,4.0,9.0,58,0.00,,,0.00,0.000000,,2013-01-15 06:02:00,
2013-01-15 00:12:00,22.0,10.0,-100.00,SSE,151,4.0,9.0,58,0.00,,,0.00,0.000000,,2013-01-15 06:12:00,
2013-01-15 00:22:00,22.0,10.0,-100.00,SSE,151,4.0,9.0,58,0.00,,,0.00,0.000000,,2013-01-15 06:22:00,
2013-01-15 00:43:00,21.0,10.0,-100.00,SSE,156,5.0,6.0,63,0.00,,,0.00,0.000000,,2013-01-15 06:43:00,
2013-01-15 00:53:00,21.0,10.0,-100.00,SSE,156,5.0,6.0,63,0.00,,,0.00,0.000000,,2013-01-15 06:53:00,
2013-01-15 01:02:00,21.0,10.0,-100.00,SSE,156,5.0,6.0,63,0.00,,,0.00,0.000000,,2013-01-15 07:02:00,
2013-01-15 01:12:00,21.0,10.0,-100.00,SSE,156,5.0,6.0,63,0.00,,,0.00,0.000000,,2013-01-15 07:12:00,
2013-01-15 01:22:00,21.0,10.0,-100.00,SSE,156,5.0,6.0,63,0.00,,,0.00,0.000000,,2013-01-15 07:22:00,
2013-01-15 01:43:00,20.0,11.0,-100.00,ESE,113,3.0,7.0,66,0.00,,,0.00,0.000000,,2013-01-15 07:43:00,
2013-01-15 01:53:00,20.0,11.0,-100.00,ESE,113,3.0,7.0,66,0.00,,,0.00,0.000000,,2013-01-15 07:53:00,
2013-01-15 02:02:00,20.0,11.0,-100.00,ESE,113,3.0,7.0,66,0.00,,,0.00,0.000000,,2013-01-15 08:02:00,
2013-01-15 02:12:00,20.0,11.0,-100.00,ESE,113,3.0,7.0,66,0.00,,,0.00,0.000000,,2013-01-15 08:12:00,
2013-01-15 02:22:00,20.0,11.0,-100.00,ESE,113,3.0,7.0,66,0.00,,,0.00,0.000000,,2013-01-15 08:22:00,
2013-01-15 02:43:00,19.0,10.0,-100.00,East,98,2.0,4.0,68,0.00,,,0.00,0.000000,,2013-01-15 08:43:00,
2013-01-15 02:53:00,19.0,10.0,-100.00,East,98,2.0,4.0,68,0.00,,,0.00,0.000000,,2013-01-15 08:53:00,
2013-01-15 03:02:00,19.0,10.0,-100.00,East,98,2.0,4.0,68,0.00,,,0.00,0.000000,,2013-01-15 09:02:00,
2013-01-15 03:12:00,19.0,10.0,-100.00,East,98,2.0,4.0,68,0.00,,,0.00,0.000000,,2013-01-15 09:12:00,
2013-01-15 03:22:00,19.0,10.0,-100.00,East,98,2.0,4.0,68,0.00,,,0.00,0.000000,,2013-01-15 09:22:00,
2013-01-15 03:43:00,18.0,10.0,-100.00,SSE,148,3.0,4.0,70,0.00,,,0.00,0.000000,,2013-01-15 09:43:00,
2013-01-15 03:52:00,18.0,10.0,-100.00,SSE,148,3.0,4.0,70,0.00,,,0.00,0.000000,,2013-01-15 09:52:00,
2013-01-15 04:02:00,18.0,10.0,-100.00,SSE,148,3.0,4.0,70,0.00,,,0.00,0.000000,,2013-01-15 10:02:00,
2013-01-15 04:12:00,18.0,10.0,-100.00,SSE,148,3.0,4.0,70,0.00,,,0.00,0.000000,,2013-01-15 10:12:00,
2013-01-15 04:22:00,18.0,10.0,-100.00,SSE,148,3.0,4.0,70,0.00,,,0.00,0.000000,,2013-01-15 10:22:00,
2013-01-15 04:42:00,17.0,9.0,-100.00,SW,232,3.0,4.0,69,0.00,,,0.00,0.000000,,2013-01-15 10:42:00,
2013-01-15 04:52:00,17.0,9.0,-100.00,SW,232,3.0,4.0,69,0.00,,,0.00,0.000000,,2013-01-15 10:52:00,
2013-01-15 05:02:00,17.0,9.0,-100.00,SW,232,3.0,4.0,69,0.00,,,0.00,0.000000,,2013-01-15 11:02:00,
2013-01-15 05:12:00,17.0,9.0,-100.00,SW,232,3.0,4.0,69,0.00,,,0.00,0.000000,,2013-01-15 11:12:00,
2013-01-15 05:22:00,17.0,9.0,-100.00,SW,232,3.0,4.0,69,0.00,,,0.00,0.000000,,2013-01-15 11:22:00,
2013-01-15 05:43:00,18.0,10.0,-100.00,West,270,0.0,4.0,70,0.00,,,0.00,0.000000,,2013-01-15 11:43:00,
2013-01-15 05:53:00,18.0,10.0,-100.00,West,270,0.0,4.0,70,0.00,,,0.00,0.000000,,2013-01-15 11:53:00,
2013-01-15 06:03:00,18.0,10.0,-100.00,West,270,0.0,4.0,70,0.00,,,0.00,0.000000,,2013-01-15 12:03:00,
2013-01-15 06:12:00,18.0,10.0,-100.00,West,270,0.0,4.0,70,0.00,,,0.00,0.000000,,2013-01-15 12:12:00,
2013-01-15 06:22:00,18.0,10.0,-100.00,West,270,0.0,4.0,70,0.00,,,0.00,0.000000,,2013-01-15 12:22:00,
2013-01-15 06:43:00,16.0,10.0,-100.00,SSE,164,1.0,2.0,78,0.00,,,0.00,0.000000,,2013-01-15 12:43:00,
2013-01-15 06:53:00,16.0,10.0,-100.00,SSE,164,1.0,2.0,78,0.00,,,0.00,0.000000,,2013-01-15 12:53:00,
2013-01-15 07:03:00,16.0,10.0,-100.00,SSE,164,1.0,2.0,78,0.00,,,0.00,0.000000,,2013-01-15 13:03:00,
2013-01-15 07:12:00,16.0,10.0,-100.00,SSE,164,1.0,2.0,78,0.00,,,0.00,0.000000,,2013-01-15 13:12:00,
2013-01-15 07:23:00,16.0,10.0,-100.00,SSE,164,1.0,2.0,78,0.00,,,0.00,0.000000,,2013-01-15 13:23:00,
2013-01-15 07:43:00,16.0,10.0,-100.00,SE,130,1.0,2.0,78,0.00,,,0.00,0.000000,,2013-01-15 13:43:00,
2013-01-15 07:53:00,16.0,10.0,-100.00,SE,130,1.0,2.0,78,0.00,,,0.00,0.000000,,2013-01-15 13:53:00,
2013-01-15 08:03:00,16.0,10.0,-100.00,SE,130,1.0,2.0,78,0.00,,,0.00,0.000000,,2013-01-15 14:03:00,
2013-01-15 08:12:00,16.0,10.0,-100.00,SE,130,1.0,2.0,78,0.00,,,0.00,0.000000,,2013-01-15 14:12:00,
2013-01-15 08:23:00,16.0,10.0,-100.00,SE,130,1.0,2.0,78,0.00,,,0.00,0.000000,,2013-01-15 14:23:00,
2013-01-15 08:43:00,17.0,11.0,-100.00,SW,218,2.0,3.0,78,0.00,,,0.00,20.000000,,2013-01-15 14:43:00,
2013-01-15 08:53:00,17.0,11.0,-100.00,SW,218,2.0,3.0,78,0.00,,,0.00,20.000000,,2013-01-15 14:53:00,
2013-01-15 09:03:00,17.0,11.0,-100.00,SW,218,2.0,3.0,78,0.00,,,0.00,20.000000,,2013-01-15 15:03:00,
2013-01-15 09:12:00,17.0,11.0,-100.00,SW,218,2.0,3.0,78,0.00,,,0.00,20.000000,,2013-01-15 15:12:00,
2013-01-15 09:23:00,17.0,11.0,-100.00,SW,218,2.0,3.0,78,0.00,,,0.00,20.000000,,2013-01-15 15:23:00,
2013-01-15 09:43:00,24.0,15.0,-100.00,SW,226,2.0,4.0,69,0.00,,,0.00,176.000000,,2013-01-15 15:43:00,
2013-01-15 09:53:00,24.0,15.0,-100.00,SW,226,2.0,4.0,69,0.00,,,0.00,176.000000,,2013-01-15 15:53:00,
2013-01-15 10:03:00,24.0,15.0,-100.00,SW,226,2.0,4.0,69,0.00,,,0.00,176.000000,,2013-01-15 16:03:00,
2013-01-15 10:12:00,24.0,15.0,-100.00,SW,226,2.0,4.0,69,0.00,,,0.00,176.000000,,2013-01-15 16:12:00,
2013-01-15 10:22:00,24.0,15.0,-100.00,SW,226,2.0,4.0,69,0.00,,,0.00,176.000000,,2013-01-15 16:22:00,
2013-01-15 10:43:00,29.0,11.0,-100.00,South,186,4.0,6.0,47,0.00,,,0.00,314.000000,,2013-01-15 16:43:00,
2013-01-15 10:53:00,29.0,11.0,-100.00,South,186,4.0,6.0,47,0.00,,,0.00,314.000000,,2013-01-15 16:53:00,
2013-01-15 11:03:00,29.0,11.0,-100.00,South,186,4.0,6.0,47,0.00,,,0.00,314.000000,,2013-01-15 17:03:00,
2013-01-15 11:12:00,29.0,11.0,-100.00,South,186,4.0,6.0,47,0.00,,,0.00,314.000000,,2013-01-15 17:12:00,
2013-01-15 11:22:00,29.0,11.0,-100.00,South,186,4.0,6.0,47,0.00,,,0.00,314.000000,,2013-01-15 17:22:00,
2013-01-15 11:43:00,31.0,12.0,-100.00,SSW,197,5.0,7.0,44,0.00,,,0.00,422.000000,,2013-01-15 17:43:00,
2013-01-15 11:53:00,31.0,12.0,-100.00,SSW,197,5.0,7.0,44,0.00,,,0.00,422.000000,,2013-01-15 17:53:00,
2013-01-15 12:03:00,31.0,12.0,-100.00,SSW,197,5.0,7.0,44,0.00,,,0.00,422.000000,,2013-01-15 18:03:00,
2013-01-15 12:13:00,31.0,12.0,-100.00,SSW,197,5.0,7.0,44,0.00,,,0.00,422.000000,,2013-01-15 18:13:00,
2013-01-15 12:23:00,31.0,12.0,-100.00,SSW,197,5.0,7.0,44,0.00,,,0.00,422.000000,,2013-01-15 18:23:00,
2013-01-15 12:43:00,33.0,11.0,-100.00,SSE,154,4.0,9.0,39,0.00,,,0.00,501.000000,,2013-01-15 18:43:00,
2013-01-15 12:53:00,33.0,11.0,-100.00,SSE,154,4.0,9.0,39,0.00,,,0.00,501.000000,,2013-01-15 18:53:00,
2013-01-15 13:03:00,33.0,11.0,-100.00,SSE,154,4.0,9.0,39,0.00,,,0.00,501.000000,,2013-01-15 19:03:00,
2013-01-15 13:12:00,33.0,11.0,-100.00,SSE,154,4.0,9.0,39,0.00,,,0.00,501.000000,,2013-01-15 19:12:00,
2013-01-15 13:22:00,33.0,11.0,-100.00,SSE,154,4.0,9.0,39,0.00,,,0.00,501.000000,,2013-01-15 19:22:00,
2013-01-15 13:43:00,33.0,9.0,-100.00,SW,230,6.0,9.0,36,0.00,,,0.00,501.000000,,2013-01-15 19:43:00,
2013-01-15 13:53:00,33.0,9.0,-100.00,SW,230,6.0,9.0,36,0.00,,,0.00,501.000000,,2013-01-15 19:53:00,
2013-01-15 14:03:00,33.0,9.0,-100.00,SW,230,6.0,9.0,36,0.00,,,0.00,501.000000,,2013-01-15 20:03:00,
2013-01-15 14:12:00,33.0,9.0,-100.00,SW,230,6.0,9.0,36,0.00,,,0.00,501.000000,,2013-01-15 20:12:00,
2013-01-15 14:23:00,33.0,9.0,-100.00,SW,230,6.0,9.0,36,0.00,,,0.00,501.000000,,2013-01-15 20:23:00,
2013-01-15 14:44:00,35.0,10.0,-100.00,SSE,167,5.0,11.0,35,0.00,,,0.00,460.000000,,2013-01-15 20:44:00,
2013-01-15 14:53:00,35.0,10.0,-100.00,SSE,167,5.0,11.0,35,0.00,,,0.00,460.000000,,2013-01-15 20:53:00,
2013-01-15 15:03:00,35.0,10.0,-100.00,SSE,167,5.0,11.0,35,0.00,,,0.00,460.000000,,2013-01-15 21:03:00,
2013-01-15 15:13:00,35.0,10.0,-100.00,SSE,167,5.0,11.0,35,0.00,,,0.00,460.000000,,2013-01-15 21:13:00,
2013-01-15 15:23:00,35.0,10.0,-100.00,SSE,167,5.0,11.0,35,0.00,,,0.00,460.000000,,2013-01-15 21:23:00,
2013-01-15 15:43:00,35.0,10.0,-100.00,WSW,244,6.0,11.0,35,0.00,,,0.00,365.000000,,2013-01-15 21:43:00,
2013-01-15 15:53:00,35.0,10.0,-100.00,WSW,244,6.0,11.0,35,0.00,,,0.00,365.000000,,2013-01-15 21:53:00,
2013-01-15 16:03:00,35.0,10.0,-100.00,WSW,244,6.0,11.0,35,0.00,,,0.00,365.000000,,2013-01-15 22:03:00,
2013-01-15 16:12:00,35.0,10.0,-100.00,WSW,244,6.0,11.0,35,0.00,,,0.00,365.000000,,2013-01-15 22:12:00,
2013-01-15 16:23:00,35.0,10.0,-100.00,WSW,244,6.0,11.0,35,0.00,,,0.00,365.000000,,2013-01-15 22:23:00,
2013-01-15 16:43:00,34.0,9.0,-100.00,SSW,211,6.0,9.0,34,0.00,,,0.00,223.000000,,2013-01-15 22:43:00,
2013-01-15 16:53:00,34.0,9.0,-100.00,SSW,211,6.0,9.0,34,0.00,,,0.00,223.000000,,2013-01-15 22:53:00,
2013-01-15 17:02:00,34.0,9.0,-100.00,SSW,211,6.0,9.0,34,0.00,,,0.00,223.000000,,2013-01-15 23:02:00,
2013-01-15 17:13:00,34.0,9.0,-100.00,SSW,211,6.0,9.0,34,0.00,,,0.00,223.000000,,2013-01-15 23:13:00,
2013-01-15 17:22:00,34.0,9.0,-100.00,SSW,211,6.0,9.0,34,0.00,,,0.00,223.000000,,2013-01-15 23:22:00,
2013-01-15 17:43:00,31.0,8.0,-100.00,SSW,197,4.0,7.0,37,0.00,,,0.00,65.000000,,2013-01-15 23:43:00,
2013-01-15 17:53:00,31.0,8.0,-100.00,SSW,197,4.0,7.0,37,0.00,,,0.00,65.000000,,2013-01-15 23:53:00,
2013-01-15 18:02:00,31.0,8.0,-100.00,SSW,197,4.0,7.0,37,0.00,,,0.00,65.000000,,2013-01-16 00:02:00,
2013-01-15 18:12:00,31.0,8.0,-100.00,SSW,197,4.0,7.0,37,0.00,,,0.00,65.000000,,2013-01-16 00:12:00,
2013-01-15 18:22:00,31.0,8.0,-100.00,SSW,197,4.0,7.0,37,0.00,,,0.00,65.000000,,2013-01-16 00:22:00,
2013-01-15 18:43:00,27.0,8.0,-100.00,SE,140,2.0,5.0,44,0.00,,,0.00,2.000000,,2013-01-16 00:43:00,
2013-01-15 18:53:00,27.0,8.0,-100.00,SE,140,2.0,5.0,44,0.00,,,0.00,2.000000,,2013-01-16 00:53:00,
2013-01-15 19:03:00,27.0,8.0,-100.00,SE,140,2.0,5.0,44,0.00,,,0.00,2.000000,,2013-01-16 01:03:00,
2013-01-15 19:12:00,27.0,8.0,-100.00,SE,140,2.0,5.0,44,0.00,,,0.00,2.000000,,2013-01-16 01:12:00,
2013-01-15 19:22:00,27.0,8.0,-100.00,SE,140,2.0,5.0,44,0.00,,,0.00,2.000000,,2013-01-16 01:22:00,
2013-01-15 19:43:00,25.0,7.0,-100.00,SSE,160,3.0,4.0,46,0.00,,,0.00,0.000000,,2013-01-16 01:43:00,
2013-01-15 19:53:00,25.0,7.0,-100.00,SSE,160,3.0,4.0,46,0.00,,,0.00,0.000000,,2013-01-16 01:53:00,
2013-01-15 20:03:00,25.0,7.0,-100.00,SSE,160,3.0,4.0,46,0.00,,,0.00,0.000000,,2013-01-16 02:03:00,
2013-01-15 20:12:00,25.0,7.0,-100.00,SSE,160,3.0,4.0,46,0.00,,,0.00,0.000000,,2013-01-16 02:12:00,
2013-01-15 20:22:00,25.0,7.0,-100.00,SSE,160,3.0,4.0,46,0.00,,,0.00,0.000000,,2013-01-16 02:22:00,
2013-01-15 20:43:00,24.0,8.0,-100.00,South,183,4.0,5.0,49,0.00,,,0.00,0.000000,,2013-01-16 02:43:00,
2013-01-15 20:53:00,24.0,8.0,-100.00,South,183,4.0,5.0,49,0.00,,,0.00,0.000000,,2013-01-16 02:53:00,
2013-01-15 21:03:00,24.0,8.0,-100.00,South,183,4.0,5.0,49,0.00,,,0.00,0.000000,,2013-01-16 03:03:00,
2013-01-15 21:12:00,24.0,8.0,-100.00,South,183,4.0,5.0,49,0.00,,,0.00,0.000000,,2013-01-16 03:12:00,
2013-01-15 21:22:00,24.0,8.0,-100.00,South,183,4.0,5.0,49,0.00,,,0.00,0.000000,,2013-01-16 03:22:00,
2013-01-15 21:43:00,22.0,8.0,-100.00,South,182,5.0,7.0,55,0.00,,,0.00,0.000000,,2013-01-16 03:43:00,
2013-01-15 21:53:00,22.0,8.0,-100.00,South,182,5.0,7.0,55,0.00,,,0.00,0.000000,,2013-01-16 03:53:00,
2013-01-15 22:02:00,22.0,8.0,-100.00,South,182,5.0,7.0,55,0.00,,,0.00,0.000000,,2013-01-16 04:02:00,
2013-01-15 22:12:00,22.0,8.0,-100.00,South,182,5.0,7.0,55,0.00,,,0.00,0.000000,,2013-01-16 04:12:00,
2013-01-15 22:22:00,22.0,8.0,-100.00,South,182,5.0,7.0,55,0.00,,,0.00,0.000000,,2013-01-16 04:22:00,
2013-01-15 22:42:00,22.0,9.0,-100.00,South,177,5.0,6.0,57,0.00,,,0.00,0.000000,,2013-01-16 04:42:00,
2013-01-15 22:52:00,22.0,9.0,-100.00,South,177,5.0,6.0,57,0.00,,,0.00,0.000000,,2013-01-16 04:52:00,
2013-01-15 23:03:00,22.0,9.0,-100.00,South,177,5.0,6.0,57,0.00,,,0.00,0.000000,,2013-01-16 05:03:00,
2013-01-15 23:12:00,22.0,9.0,-100.00,South,177,5.0,6.0,57,0.00,,,0.00,0.000000,,2013-01-16 05:12:00,
2013-01-15 23:22:00,22.0,9.0,-100.00,South,177,5.0,6.0,57,0.00,,,0.00,0.000000,,2013-01-16 05:22:00,
2013-01-15 23:43:00,20.0,8.0,-100.00,SSW,192,5.0,6.0,60,0.00,,,0.00,0.000000,,2013-01-16 05:43:00,
2013-01-15 23:53:00,20.0,8.0,-100.00,SSW,192,5.0,6.0,60,0.00,,,0.00,0.000000,,2013-01-16 05:53:00,